Time;durP1;ratioP1;P1;durP2;ratioP2;P2;SDS_P1;SDS_P2;PMS_P1;PMS_P2;Temp;Humidity;BMP_temperature;BMP_pressure;BME280_temperature;BME280_humidity;BME280_pressure;Samples;Min_cycle;Max_cycle;Signal;HPM_P1;HPM_P2
2023/10/23 00:01:59;;;;;;;10.27;9.77;;;;;;;-141.22;100.00;65034.22;5023735;28;20464;-37
2023/10/23 00:04:27;;;;;;;9.20;8.70;;;;;;;-141.22;100.00;65034.22;5030802;28;20456;-37
2023/10/23 00:06:55;;;;;;;9.90;9.00;;;;;;;-141.22;100.00;65034.22;5003392;28;20437;-37
2023/10/23 00:09:23;;;;;;;10.97;9.73;;;;;;;-141.22;100.00;65034.22;5027038;28;20436;-37
2023/10/23 00:11:50;;;;;;;10.20;9.50;;;;;;;-141.22;100.00;65034.22;5014563;28;20495;-37
2023/10/23 00:14:18;;;;;;;10.70;8.73;;;;;;;-141.22;100.00;65034.22;5014334;28;20558;-37
2023/10/23 00:16:46;;;;;;;8.10;7.50;;;;;;;-141.22;100.00;65034.22;5030829;28;20472;-38
2023/10/23 00:19:15;;;;;;;8.57;7.73;;;;;;;-141.22;100.00;65034.22;5031058;28;20816;-37
2023/10/23 00:21:44;;;;;;;10.33;7.80;;;;;;;-141.22;100.00;65034.22;5030756;28;20550;-38
2023/10/23 00:24:12;;;;;;;10.23;9.53;;;;;;;-141.22;100.00;65034.22;5008685;28;20580;-37
2023/10/23 00:26:40;;;;;;;8.20;7.60;;;;;;;-141.22;100.00;65034.22;5027357;28;20440;-38
2023/10/23 00:29:08;;;;;;;8.97;8.27;;;;;;;-141.22;100.00;65034.22;5024705;28;20440;-38
2023/10/23 00:31:35;;;;;;;8.60;8.10;;;;;;;-141.22;100.00;65034.22;5030466;28;20476;-38
2023/10/23 00:34:03;;;;;;;8.50;7.80;;;;;;;-141.22;100.00;65034.22;5021260;28;20517;-38
2023/10/23 00:36:33;;;;;;;8.13;7.50;;;;;;;-141.22;100.00;65034.22;5004764;28;20960;-39
2023/10/23 00:39:00;;;;;;;8.90;8.03;;;;;;;-141.22;100.00;65034.22;5031068;28;20440;-37
2023/10/23 00:41:28;;;;;;;7.87;7.37;;;;;;;-141.22;100.00;65034.22;5015220;28;20493;-37
2023/10/23 00:43:56;;;;;;;8.87;8.07;;;;;;;-141.22;100.00;65034.22;5014310;28;20559;-37
2023/10/23 00:46:24;;;;;;;8.50;7.90;;;;;;;-141.22;100.00;65034.22;5016089;28;21016;-38
2023/10/23 00:48:53;;;;;;;8.03;7.40;;;;;;;-141.22;100.00;65034.22;5021736;28;20820;-37
2023/10/23 00:51:21;;;;;;;10.07;9.13;;;;;;;-141.22;100.00;65034.22;5030838;28;20480;-37
2023/10/23 00:53:50;;;;;;;8.80;8.40;;;;;;;-141.22;100.00;65034.22;5025194;28;20543;-38
2023/10/23 00:56:18;;;;;;;8.97;8.40;;;;;;;-141.22;100.00;65034.22;5020129;28;20539;-38
2023/10/23 00:58:47;;;;;;;9.67;8.83;;;;;;;-141.22;100.00;65034.22;5014229;28;20436;-37
2023/10/23 01:01:15;;;;;;;12.40;9.83;;;;;;;-141.22;100.00;65034.22;5014528;28;20774;-38
2023/10/23 01:03:44;;;;;;;10.10;9.20;;;;;;;-141.22;100.00;65034.22;5014953;28;21060;-37
2023/10/23 01:06:13;;;;;;;10.43;9.53;;;;;;;-141.22;100.00;65034.22;5034478;28;20856;-37
2023/10/23 01:08:42;;;;;;;9.73;9.13;;;;;;;-141.22;100.00;65034.22;5017918;28;20971;-37
2023/10/23 01:11:11;;;;;;;9.60;8.63;;;;;;;-141.22;100.00;65034.22;5034235;28;20553;-38
2023/10/23 01:13:39;;;;;;;10.60;9.43;;;;;;;-141.22;100.00;65034.22;5024616;28;20469;-38
2023/10/23 01:16:07;;;;;;;9.60;8.87;;;;;;;-141.22;100.00;65034.22;5006415;28;20499;-38
2023/10/23 01:18:35;;;;;;;9.83;9.17;;;;;;;-141.22;100.00;65034.22;5005876;28;20466;-37
2023/10/23 01:21:03;;;;;;;10.00;9.13;;;;;;;-141.22;100.00;65034.22;5019201;28;20432;-37
2023/10/23 01:23:35;;;;;;;10.57;9.27;;;;;;;-141.22;100.00;65034.22;5033814;28;20459;-37
2023/10/23 01:26:05;;;;;;;10.80;10.20;;;;;;;-141.22;100.00;65034.22;5034034;28;20446;-37
2023/10/23 01:28:32;;;;;;;9.20;8.60;;;;;;;-141.22;100.00;65034.22;5034225;28;20447;-38
2023/10/23 01:31:00;;;;;;;10.43;9.73;;;;;;;-141.22;100.00;65034.22;5033756;28;20978;-38
2023/10/23 01:33:29;;;;;;;11.13;10.20;;;;;;;-141.22;100.00;65034.22;5018994;28;20462;-37
2023/10/23 01:35:57;;;;;;;11.07;10.00;;;;;;;-141.22;100.00;65034.22;5020224;28;20431;-38
2023/10/23 01:38:25;;;;;;;10.13;9.40;;;;;;;-141.22;100.00;65034.22;5025598;28;20522;-38
2023/10/23 01:40:52;;;;;;;11.13;10.30;;;;;;;-141.22;100.00;65034.22;5028725;28;20939;-38
2023/10/23 01:43:21;;;;;;;11.40;10.40;;;;;;;-141.22;100.00;65034.22;5023312;28;20452;-37
2023/10/23 01:45:49;;;;;;;10.70;9.93;;;;;;;-141.22;100.00;65034.22;5033360;28;20476;-37
2023/10/23 01:48:17;;;;;;;10.27;9.57;;;;;;;-141.22;100.00;65034.22;5033768;28;20495;-38
2023/10/23 01:50:44;;;;;;;9.97;9.03;;;;;;;-141.22;100.00;65034.22;5017079;28;20989;-37
2023/10/23 01:53:12;;;;;;;9.47;8.97;;;;;;;-141.22;100.00;65034.22;5033150;28;20510;-38
2023/10/23 01:55:40;;;;;;;10.93;9.90;;;;;;;-141.22;100.00;65034.22;5033276;28;20436;-38
2023/10/23 01:58:07;;;;;;;15.23;10.33;;;;;;;-141.22;100.00;65034.22;5029095;28;20528;-39
2023/10/23 02:00:36;;;;;;;10.70;9.67;;;;;;;-141.22;100.00;65034.22;5021704;28;20442;-38
2023/10/23 02:03:04;;;;;;;10.83;10.10;;;;;;;-141.22;100.00;65034.22;5000865;28;20472;-37
2023/10/23 02:05:32;;;;;;;10.40;9.70;;;;;;;-141.22;100.00;65034.22;5025663;28;20977;-37
2023/10/23 02:08:00;;;;;;;10.63;9.80;;;;;;;-141.22;100.00;65034.22;5033358;28;20432;-37
2023/10/23 02:10:28;;;;;;;9.93;9.03;;;;;;;-141.22;100.00;65034.22;5033217;28;20498;-40
2023/10/23 02:12:56;;;;;;;9.77;9.27;;;;;;;-141.22;100.00;65034.22;5026830;28;20504;-38
2023/10/23 02:15:24;;;;;;;9.23;8.50;;;;;;;-141.22;100.00;65034.22;5022987;28;20436;-38
2023/10/23 02:17:52;;;;;;;11.87;9.47;;;;;;;-141.22;100.00;65034.22;5016549;28;21022;-38
2023/10/23 02:20:22;;;;;;;9.80;9.20;;;;;;;-141.22;100.00;65034.22;5016857;28;20963;-38
2023/10/23 02:22:49;;;;;;;10.10;9.43;;;;;;;-141.22;100.00;65034.22;5029329;28;20506;-38
2023/10/23 02:25:17;;;;;;;11.93;10.20;;;;;;;-141.22;100.00;65034.22;5020463;28;20495;-38
2023/10/23 02:27:44;;;;;;;11.77;9.73;;;;;;;-141.22;100.00;65034.22;5032810;28;20507;-38
2023/10/23 02:30:13;;;;;;;15.80;9.87;;;;;;;-141.22;100.00;65034.22;5032977;28;20462;-38
2023/10/23 02:32:41;;;;;;;11.27;10.27;;;;;;;-141.22;100.00;65034.22;5032474;28;20480;-37
2023/10/23 02:35:10;;;;;;;10.80;10.00;;;;;;;-141.22;100.00;65034.22;5032259;28;20456;-38
2023/10/23 02:37:37;;;;;;;11.30;10.40;;;;;;;-141.22;100.00;65034.22;5029406;28;20827;-37
2023/10/23 02:40:06;;;;;;;10.50;9.60;;;;;;;-141.22;100.00;65034.22;5032805;28;20499;-38
2023/10/23 02:42:34;;;;;;;10.90;10.20;;;;;;;-141.22;100.00;65034.22;5032586;28;20484;-39
2023/10/23 02:45:02;;;;;;;12.50;11.40;;;;;;;-141.22;100.00;65034.22;5015893;28;20539;-38
2023/10/23 02:47:29;;;;;;;15.40;10.67;;;;;;;-141.22;100.00;65034.22;5032426;28;20966;-37
2023/10/23 02:49:57;;;;;;;12.33;10.90;;;;;;;-141.22;100.00;65034.22;5027053;28;20481;-38
2023/10/23 02:52:26;;;;;;;12.00;11.10;;;;;;;-141.22;100.00;65034.22;5022512;28;20890;-38
2023/10/23 02:54:54;;;;;;;12.80;11.80;;;;;;;-141.22;100.00;65034.22;5015596;28;20452;-38
2023/10/23 02:57:22;;;;;;;12.70;11.50;;;;;;;-141.22;100.00;65034.22;5032350;28;20447;-38
2023/10/23 02:59:50;;;;;;;12.07;11.00;;;;;;;-141.22;100.00;65034.22;5032185;28;20448;-38
2023/10/23 03:02:19;;;;;;;13.27;12.00;;;;;;;-141.22;100.00;65034.22;5031728;28;20488;-38
2023/10/23 03:04:47;;;;;;;13.00;12.00;;;;;;;-141.22;100.00;65034.22;5031567;28;20514;-37
2023/10/23 03:07:15;;;;;;;13.47;12.53;;;;;;;-141.22;100.00;65034.22;5031975;28;20527;-37
2023/10/23 03:09:44;;;;;;;11.80;10.90;;;;;;;-141.22;100.00;65034.22;5017933;28;20465;-38
2023/10/23 03:12:11;;;;;;;13.43;12.13;;;;;;;-141.22;100.00;65034.22;5031921;28;20971;-38
2023/10/23 03:14:39;;;;;;;14.50;11.87;;;;;;;-141.22;100.00;65034.22;5031545;28;20543;-38
2023/10/23 03:17:07;;;;;;;14.90;13.37;;;;;;;-141.22;100.00;65034.22;5031864;28;20494;-38
2023/10/23 03:19:34;;;;;;;12.17;11.27;;;;;;;-141.22;100.00;65034.22;5032209;28;20962;-38
2023/10/23 03:22:02;;;;;;;13.27;12.07;;;;;;;-141.22;100.00;65034.22;5031788;28;20880;-37
2023/10/23 03:24:30;;;;;;;12.80;11.60;;;;;;;-141.22;100.00;65034.22;5008044;28;20810;-37
2023/10/23 03:26:59;;;;;;;14.27;12.03;;;;;;;-141.22;100.00;65034.22;5029799;28;20436;-38
2023/10/23 03:29:27;;;;;;;14.10;12.70;;;;;;;-141.22;100.00;65034.22;5031843;28;20865;-38
2023/10/23 03:31:54;;;;;;;14.47;13.33;;;;;;;-141.22;100.00;65034.22;5015036;28;20479;-37
2023/10/23 03:34:24;;;;;;;13.50;12.27;;;;;;;-141.22;100.00;65034.22;5019733;28;20481;-38
2023/10/23 03:36:52;;;;;;;13.97;13.03;;;;;;;-141.22;100.00;65034.22;5007334;28;20438;-38
2023/10/23 03:39:20;;;;;;;12.63;11.73;;;;;;;-141.22;100.00;65034.22;5020460;28;20445;-38
2023/10/23 03:41:48;;;;;;;14.93;13.90;;;;;;;-141.22;100.00;65034.22;5022154;22;20612;-43
2023/10/23 03:44:17;;;;;;;15.47;14.47;;;;;;;-141.22;100.00;65034.22;4991799;28;20470;-40
2023/10/23 03:46:45;;;;;;;13.07;11.87;;;;;;;-141.22;100.00;65034.22;4999899;28;20520;-41
2023/10/23 03:49:12;;;;;;;12.90;11.60;;;;;;;-141.22;100.00;65034.22;4992295;28;20566;-43
2023/10/23 03:51:40;;;;;;;12.47;11.27;;;;;;;-141.22;100.00;65034.22;4992109;28;20854;-41
2023/10/23 03:54:08;;;;;;;10.17;9.57;;;;;;;-141.22;100.00;65034.22;4991699;28;20508;-40
2023/10/23 03:56:35;;;;;;;12.97;11.77;;;;;;;-141.22;100.00;65034.22;5000164;28;20488;-42
2023/10/23 03:59:03;;;;;;;12.40;11.53;;;;;;;-141.22;100.00;65034.22;4992117;28;20438;-41
2023/10/23 04:01:32;;;;;;;12.57;11.40;;;;;;;-141.22;100.00;65034.22;4998939;28;20492;-40
2023/10/23 04:04:00;;;;;;;13.33;12.00;;;;;;;-141.22;100.00;65034.22;5003148;28;20469;-41
2023/10/23 04:06:27;;;;;;;14.57;13.27;;;;;;;-141.22;100.00;65034.22;5003322;28;20433;-40
2023/10/23 04:08:55;;;;;;;20.73;12.80;;;;;;;-141.22;100.00;65034.22;5011962;28;20460;-40
2023/10/23 04:11:23;;;;;;;13.77;12.30;;;;;;;-141.22;100.00;65034.22;5011549;28;20959;-41
2023/10/23 04:13:51;;;;;;;13.80;12.57;;;;;;;-141.22;100.00;65034.22;5011209;28;20507;-42
2023/10/23 04:16:19;;;;;;;14.23;13.13;;;;;;;-141.22;100.00;65034.22;5011446;28;20544;-40
2023/10/23 04:18:48;;;;;;;14.97;13.83;;;;;;;-141.22;100.00;65034.22;5011509;28;20443;-40
2023/10/23 04:21:17;;;;;;;15.33;14.10;;;;;;;-141.22;100.00;65034.22;5011445;28;21089;-43
2023/10/23 04:23:45;;;;;;;14.50;13.50;;;;;;;-141.22;100.00;65034.22;5011136;28;20524;-43
2023/10/23 04:26:13;;;;;;;14.90;13.70;;;;;;;-141.22;100.00;65034.22;5011544;28;20472;-40
2023/10/23 04:28:40;;;;;;;15.93;14.60;;;;;;;-141.22;100.00;65034.22;5011578;28;20429;-40
2023/10/23 04:31:08;;;;;;;15.93;14.57;;;;;;;-141.22;100.00;65034.22;5011371;28;20514;-40
2023/10/23 04:33:36;;;;;;;15.53;14.53;;;;;;;-141.22;100.00;65034.22;5010963;28;20844;-41
2023/10/23 04:36:05;;;;;;;14.63;13.60;;;;;;;-141.22;100.00;65034.22;5011178;28;20429;-42
2023/10/23 04:38:33;;;;;;;15.43;14.13;;;;;;;-141.22;100.00;65034.22;5006358;28;20439;-43
2023/10/23 04:41:00;;;;;;;14.67;13.60;;;;;;;-141.22;100.00;65034.22;5015047;28;20548;-44
2023/10/23 04:43:28;;;;;;;15.90;14.53;;;;;;;-141.22;100.00;65034.22;5014895;28;20990;-40
2023/10/23 04:45:57;;;;;;;15.80;14.63;;;;;;;-141.22;100.00;65034.22;5014845;28;20432;-41
2023/10/23 04:48:25;;;;;;;16.27;14.77;;;;;;;-141.22;100.00;65034.22;5015524;28;20440;-41
2023/10/23 04:50:53;;;;;;;15.17;13.90;;;;;;;-141.22;100.00;65034.22;5014977;28;20457;-40
2023/10/23 04:53:22;;;;;;;15.30;14.20;;;;;;;-141.22;100.00;65034.22;5014575;28;20999;-40
2023/10/23 04:55:49;;;;;;;16.67;15.13;;;;;;;-141.22;100.00;65034.22;5014872;28;20719;-40
2023/10/23 04:58:17;;;;;;;15.87;14.40;;;;;;;-141.22;100.00;65034.22;5015043;28;20433;-40
2023/10/23 05:00:45;;;;;;;17.33;15.53;;;;;;;-141.22;100.00;65034.22;5014625;28;20460;-40
2023/10/23 05:03:13;;;;;;;15.90;14.90;;;;;;;-141.22;100.00;65034.22;4994897;28;20465;-40
2023/10/23 05:05:46;;;;;;;16.97;15.40;;;;;;;-141.22;100.00;65034.22;5003330;28;20442;-41
2023/10/23 05:08:13;;;;;;;17.07;15.47;;;;;;;-141.22;100.00;65034.22;5007293;28;20467;-42
2023/10/23 05:10:43;;;;;;;17.13;15.83;;;;;;;-141.22;100.00;65034.22;5007077;28;20801;-40
2023/10/23 05:13:10;;;;;;;17.20;15.80;;;;;;;-141.22;100.00;65034.22;5006262;28;20472;-43
2023/10/23 05:15:38;;;;;;;16.90;15.60;;;;;;;-141.22;100.00;65034.22;5007447;28;21015;-40
2023/10/23 05:18:06;;;;;;;19.90;15.63;;;;;;;-141.22;100.00;65034.22;5014175;28;20804;-41
2023/10/23 05:20:36;;;;;;;16.43;15.30;;;;;;;-141.22;100.00;65034.22;5014667;28;20511;-40
2023/10/23 05:23:04;;;;;;;16.73;15.43;;;;;;;-141.22;100.00;65034.22;5014175;28;20503;-40
2023/10/23 05:25:32;;;;;;;17.03;15.73;;;;;;;-141.22;100.00;65034.22;5014155;28;20441;-40
2023/10/23 05:28:01;;;;;;;16.37;14.93;;;;;;;-141.22;100.00;65034.22;5014726;28;20919;-40
2023/10/23 05:30:29;;;;;;;15.40;14.20;;;;;;;-141.22;100.00;65034.22;5014442;28;20928;-40
2023/10/23 05:32:56;;;;;;;16.60;15.20;;;;;;;-141.22;100.00;65034.22;5013828;28;20560;-40
2023/10/23 05:35:24;;;;;;;17.27;15.90;;;;;;;-141.22;100.00;65034.22;5014047;28;20927;-40
2023/10/23 05:37:52;;;;;;;16.80;15.43;;;;;;;-141.22;100.00;65034.22;5006018;28;20476;-41
2023/10/23 05:40:20;;;;;;;15.97;14.70;;;;;;;-141.22;100.00;65034.22;5014241;28;20444;-40
2023/10/23 05:42:47;;;;;;;17.13;15.53;;;;;;;-141.22;100.00;65034.22;5014056;28;20520;-40
2023/10/23 05:45:16;;;;;;;17.30;15.77;;;;;;;-141.22;100.00;65034.22;5013687;28;20449;-41
2023/10/23 05:47:44;;;;;;;16.10;14.90;;;;;;;-141.22;100.00;65034.22;4998208;28;20445;-40
2023/10/23 05:50:12;;;;;;;16.03;14.67;;;;;;;-141.22;100.00;65034.22;5005498;28;20855;-40
2023/10/23 05:52:39;;;;;;;18.83;14.40;;;;;;;-141.22;100.00;65034.22;5013728;28;20535;-41
2023/10/23 05:55:08;;;;;;;16.20;14.60;;;;;;;-141.22;100.00;65034.22;5013329;28;20657;-43
2023/10/23 05:57:36;;;;;;;16.57;14.93;;;;;;;-141.22;100.00;65034.22;5013812;28;20433;-40
2023/10/23 06:00:05;;;;;;;15.47;14.37;;;;;;;-141.22;100.00;65034.22;5013936;28;20499;-40
2023/10/23 06:02:34;;;;;;;19.80;16.03;;;;;;;-141.22;100.00;65034.22;5013753;28;20488;-40
2023/10/23 06:05:01;;;;;;;16.87;15.33;;;;;;;-141.22;100.00;65034.22;5013074;28;20464;-41
2023/10/23 06:07:29;;;;;;;18.40;16.20;;;;;;;-141.22;100.00;65034.22;5013614;28;20476;-43
2023/10/23 06:09:59;;;;;;;16.93;15.40;;;;;;;-141.22;100.00;65034.22;5005540;28;20440;-41
2023/10/23 06:12:26;;;;;;;15.43;14.40;;;;;;;-141.22;100.00;65034.22;5005109;28;20495;-43
2023/10/23 06:14:54;;;;;;;15.70;14.40;;;;;;;-141.22;100.00;65034.22;5005012;28;20461;-40
2023/10/23 06:17:22;;;;;;;16.77;15.50;;;;;;;-141.22;100.00;65034.22;5008654;28;20434;-40
2023/10/23 06:19:51;;;;;;;18.23;16.63;;;;;;;-141.22;100.00;65034.22;5010068;28;20437;-40
2023/10/23 06:22:19;;;;;;;15.57;14.20;;;;;;;-141.22;100.00;65034.22;5006365;28;20460;-42
2023/10/23 06:24:46;;;;;;;15.07;13.70;;;;;;;-141.22;100.00;65034.22;5013056;28;20900;-40
2023/10/23 06:27:14;;;;;;;18.73;16.83;;;;;;;-141.22;100.00;65034.22;5005329;28;20490;-42
2023/10/23 06:29:41;;;;;;;15.57;14.37;;;;;;;-141.22;100.00;65034.22;5013378;28;20441;-40
2023/10/23 06:32:10;;;;;;;15.80;14.63;;;;;;;-141.22;100.00;65034.22;5013265;28;20452;-40
2023/10/23 06:34:37;;;;;;;15.87;14.57;;;;;;;-141.22;100.00;65034.22;5012697;28;21002;-41
2023/10/23 06:37:07;;;;;;;15.43;14.13;;;;;;;-141.22;100.00;65034.22;5010356;28;20942;-40
2023/10/23 06:39:35;;;;;;;15.60;14.17;;;;;;;-141.22;100.00;65034.22;5008085;28;20472;-43
2023/10/23 06:42:04;;;;;;;14.53;13.40;;;;;;;-141.22;100.00;65034.22;5013007;28;20950;-41
2023/10/23 06:44:32;;;;;;;13.80;12.57;;;;;;;-141.22;100.00;65034.22;5012468;28;20471;-42
2023/10/23 06:46:59;;;;;;;15.40;14.10;;;;;;;-141.22;100.00;65034.22;5011588;28;20437;-41
2023/10/23 06:49:27;;;;;;;14.87;13.63;;;;;;;-141.22;100.00;65034.22;5006882;28;20528;-41
2023/10/23 06:51:54;;;;;;;15.63;14.23;;;;;;;-141.22;100.00;65034.22;5012933;28;20544;-42
2023/10/23 06:54:24;;;;;;;13.20;12.20;;;;;;;-141.22;100.00;65034.22;5012358;28;20652;-41
2023/10/23 06:56:51;;;;;;;13.63;12.50;;;;;;;-141.22;100.00;65034.22;5012443;28;20469;-41
2023/10/23 06:59:19;;;;;;;14.50;13.07;;;;;;;-141.22;100.00;65034.22;5012751;28;20433;-40
2023/10/23 07:01:47;;;;;;;14.17;13.07;;;;;;;-141.22;100.00;65034.22;5011561;28;20485;-42
2023/10/23 07:04:15;;;;;;;15.20;14.00;;;;;;;-141.22;100.00;65034.22;4996165;28;20846;-41
2023/10/23 07:06:43;;;;;;;16.80;15.10;;;;;;;-141.22;100.00;65034.22;5012335;28;20468;-42
2023/10/23 07:09:10;;;;;;;14.80;13.60;;;;;;;-141.22;100.00;65034.22;5012675;28;20469;-42
2023/10/23 07:11:39;;;;;;;18.93;15.63;;;;;;;-141.22;100.00;65034.22;5012281;28;20972;-40
2023/10/23 07:14:07;;;;;;;14.07;12.97;;;;;;;-141.22;100.00;65034.22;5011894;28;20984;-43
2023/10/23 07:16:35;;;;;;;16.43;14.00;;;;;;;-141.22;100.00;65034.22;5012457;28;20495;-40
2023/10/23 07:19:04;;;;;;;14.70;13.40;;;;;;;-141.22;100.00;65034.22;5010766;28;20971;-41
2023/10/23 07:21:32;;;;;;;16.70;13.50;;;;;;;-141.22;100.00;65034.22;4992693;28;20976;-42
2023/10/23 07:24:00;;;;;;;14.33;13.07;;;;;;;-141.22;100.00;65034.22;5009696;28;20881;-41
2023/10/23 07:26:27;;;;;;;12.90;11.90;;;;;;;-141.22;100.00;65034.22;5011928;28;20433;-41
2023/10/23 07:28:56;;;;;;;12.70;11.40;;;;;;;-141.22;100.00;65034.22;5012143;28;20950;-41
2023/10/23 07:31:24;;;;;;;11.07;10.23;;;;;;;-141.22;100.00;65034.22;5012186;28;20452;-41
2023/10/23 07:33:52;;;;;;;12.97;11.97;;;;;;;-141.22;100.00;65034.22;5011573;28;20999;-42
2023/10/23 07:36:20;;;;;;;13.30;12.20;;;;;;;-141.22;100.00;65034.22;5011994;28;20488;-41
2023/10/23 07:38:47;;;;;;;12.57;11.57;;;;;;;-141.22;100.00;65034.22;5003897;28;20813;-41
2023/10/23 07:41:15;;;;;;;13.07;12.07;;;;;;;-141.22;100.00;65034.22;5011795;28;20465;-43
2023/10/23 07:43:43;;;;;;;13.60;12.53;;;;;;;-141.22;100.00;65034.22;5011601;28;20465;-40
2023/10/23 07:46:12;;;;;;;13.90;12.90;;;;;;;-141.22;100.00;65034.22;5011769;28;20807;-41
2023/10/23 07:48:45;;;;;;;14.17;12.90;;;;;;;-141.22;100.00;65034.22;5012224;28;20778;-41
2023/10/23 07:51:14;;;;;;;14.57;13.33;;;;;;;-141.22;100.00;65034.22;5011744;28;20453;-41
2023/10/23 07:53:41;;;;;;;13.97;12.77;;;;;;;-141.22;100.00;65034.22;5011434;28;20844;-42
2023/10/23 07:56:09;;;;;;;12.57;11.47;;;;;;;-141.22;100.00;65034.22;5011766;28;21016;-42
2023/10/23 07:58:37;;;;;;;11.50;10.60;;;;;;;-141.22;100.00;65034.22;5011960;28;20425;-41
2023/10/23 08:01:05;;;;;;;12.17;11.27;;;;;;;-141.22;100.00;65034.22;5012058;28;20503;-41
2023/10/23 08:03:35;;;;;;;12.00;11.00;;;;;;;-141.22;100.00;65034.22;5011771;28;20897;-42
2023/10/23 08:06:05;;;;;;;11.07;10.33;;;;;;;-141.22;100.00;65034.22;5009932;28;20445;-40
2023/10/23 08:08:33;;;;;;;11.90;10.90;;;;;;;-141.22;100.00;65034.22;5005522;28;20966;-41
2023/10/23 08:11:03;;;;;;;12.00;11.20;;;;;;;-141.22;100.00;65034.22;5011501;28;20484;-42
2023/10/23 08:13:30;;;;;;;10.33;9.40;;;;;;;-141.22;100.00;65034.22;5010779;28;20511;-41
2023/10/23 08:15:58;;;;;;;13.20;12.30;;;;;;;-141.22;100.00;65034.22;4994415;28;20469;-42
2023/10/23 08:18:28;;;;;;;12.43;11.23;;;;;;;-141.22;100.00;65034.22;5004727;28;20537;-42
2023/10/23 08:21:00;;;;;;;12.40;11.20;;;;;;;-141.22;100.00;65034.22;5011213;28;20457;-40
2023/10/23 08:23:27;;;;;;;12.17;11.13;;;;;;;-141.22;100.00;65034.22;5004093;28;20991;-40
2023/10/23 08:25:55;;;;;;;11.10;10.20;;;;;;;-141.22;100.00;65034.22;5002990;28;20939;-41
2023/10/23 08:28:23;;;;;;;13.13;11.90;;;;;;;-141.22;100.00;65034.22;5003929;28;20433;-41
2023/10/23 08:30:50;;;;;;;10.00;9.10;;;;;;;-141.22;100.00;65034.22;5011238;28;20463;-43
2023/10/23 08:33:18;;;;;;;10.30;9.60;;;;;;;-141.22;100.00;65034.22;5010896;28;20471;-41
2023/10/23 08:35:46;;;;;;;11.43;10.27;;;;;;;-141.22;100.00;65034.22;5011357;28;20840;-40
2023/10/23 08:38:15;;;;;;;11.30;10.50;;;;;;;-141.22;100.00;65034.22;5011113;28;20964;-41
2023/10/23 08:40:43;;;;;;;11.93;10.83;;;;;;;-141.22;100.00;65034.22;5011274;28;20861;-41
2023/10/23 08:43:10;;;;;;;10.53;9.77;;;;;;;-141.22;100.00;65034.22;5010930;28;20488;-41
2023/10/23 08:45:40;;;;;;;11.33;10.43;;;;;;;-141.22;100.00;65034.22;5011001;28;20436;-41
2023/10/23 08:48:08;;;;;;;10.53;9.53;;;;;;;-141.22;100.00;65034.22;5011446;28;20479;-41
2023/10/23 08:50:38;;;;;;;10.83;10.13;;;;;;;-141.22;100.00;65034.22;5011436;28;20524;-41
2023/10/23 08:53:09;;;;;;;10.20;9.60;;;;;;;-141.22;100.00;65034.22;5010807;28;20433;-41
2023/10/23 08:55:38;;;;;;;10.23;9.23;;;;;;;-141.22;100.00;65034.22;5010907;28;20522;-41
2023/10/23 08:58:06;;;;;;;11.50;10.40;;;;;;;-141.22;100.00;65034.22;5011145;28;20433;-41
2023/10/23 09:00:34;;;;;;;10.63;9.90;;;;;;;-141.22;100.00;65034.22;5011441;28;20480;-41
2023/10/23 09:03:05;;;;;;;10.90;9.80;;;;;;;-141.22;100.00;65034.22;5010869;28;20895;-40
2023/10/23 09:05:33;;;;;;;10.00;9.10;;;;;;;-141.22;100.00;65034.22;5011074;28;20421;-43
2023/10/23 09:08:01;;;;;;;15.23;13.53;;;;;;;-141.22;100.00;65034.22;5011045;28;20439;-40
2023/10/23 09:10:29;;;;;;;8.70;7.90;;;;;;;-141.22;100.00;65034.22;5010899;28;20469;-42
2023/10/23 09:12:58;;;;;;;9.00;8.40;;;;;;;-141.22;100.00;65034.22;5010811;28;20425;-42
2023/10/23 09:15:26;;;;;;;7.30;6.90;;;;;;;-141.22;100.00;65034.22;5010684;28;20984;-41
2023/10/23 09:17:54;;;;;;;8.33;7.63;;;;;;;-141.22;100.00;65034.22;5003595;28;20520;-41
2023/10/23 09:20:23;;;;;;;7.33;6.83;;;;;;;-141.22;100.00;65034.22;5010910;28;20548;-41
2023/10/23 09:22:55;;;;;;;9.70;6.83;;;;;;;-141.22;100.00;65034.22;5010601;28;21026;-41
2023/10/23 09:25:25;;;;;;;8.63;8.03;;;;;;;-141.22;100.00;65034.22;5004967;28;20426;-41
2023/10/23 09:27:53;;;;;;;8.13;7.53;;;;;;;-141.22;100.00;65034.22;5006649;28;20429;-41
2023/10/23 09:30:22;;;;;;;7.40;6.80;;;;;;;-141.22;100.00;65034.22;5006442;28;20520;-41
2023/10/23 09:32:51;;;;;;;6.73;6.07;;;;;;;-141.22;100.00;65034.22;5014516;28;20461;-41
2023/10/23 09:35:20;;;;;;;8.30;7.53;;;;;;;-141.22;100.00;65034.22;5013658;28;21018;-41
2023/10/23 09:37:47;;;;;;;8.67;7.80;;;;;;;-141.22;100.00;65034.22;5007880;28;20426;-43
2023/10/23 09:40:17;;;;;;;6.97;6.47;;;;;;;-141.22;100.00;65034.22;5013261;28;20440;-41
2023/10/23 09:42:45;;;;;;;9.27;8.57;;;;;;;-141.22;100.00;65034.22;5014032;28;20836;-41
2023/10/23 09:45:14;;;;;;;9.47;8.40;;;;;;;-141.22;100.00;65034.22;5013694;28;21061;-41
2023/10/23 09:47:46;;;;;;;9.17;7.10;;;;;;;-141.22;100.00;65034.22;5014138;28;20465;-41
2023/10/23 09:50:14;;;;;;;7.10;6.70;;;;;;;-141.22;100.00;65034.22;5014205;28;20508;-41
2023/10/23 09:52:44;;;;;;;7.43;6.70;;;;;;;-141.22;100.00;65034.22;5014079;28;20449;-41
2023/10/23 09:55:14;;;;;;;7.60;6.80;;;;;;;-141.22;100.00;65034.22;5013359;28;20465;-45
2023/10/23 09:57:46;;;;;;;7.83;7.30;;;;;;;-141.22;100.00;65034.22;5014212;28;20441;-41
2023/10/23 10:00:14;;;;;;;6.73;6.20;;;;;;;-141.22;100.00;65034.22;5013921;28;20441;-41
2023/10/23 10:02:49;;;;;;;9.50;7.10;;;;;;;-141.22;100.00;65034.22;5047739;22;20488;-44
2023/10/23 10:05:22;;;;;;;7.53;6.93;;;;;;;-141.22;100.00;65034.22;4998546;28;20956;-41
2023/10/23 10:07:59;;;;;;;7.83;5.30;;;;;;;-141.22;100.00;65034.22;5000222;28;20473;-42
2023/10/23 10:10:28;;;;;;;6.80;5.60;;;;;;;-141.22;100.00;65034.22;4995411;28;20449;-41
2023/10/23 10:12:56;;;;;;;9.90;5.50;;;;;;;-141.22;100.00;65034.22;4994609;28;20458;-41
2023/10/23 10:15:25;;;;;;;6.40;5.43;;;;;;;-141.22;100.00;65034.22;4995162;28;20485;-41
2023/10/23 10:17:54;;;;;;;6.63;6.10;;;;;;;-141.22;100.00;65034.22;5002311;28;20437;-41
2023/10/23 10:20:23;;;;;;;6.70;6.30;;;;;;;-141.22;100.00;65034.22;5003154;28;20445;-41
2023/10/23 10:22:58;;;;;;;5.63;5.33;;;;;;;-141.22;100.00;65034.22;5002459;28;20461;-43
2023/10/23 10:25:27;;;;;;;5.33;4.87;;;;;;;-141.22;100.00;65034.22;4997658;28;20437;-42
2023/10/23 10:27:59;;;;;;;5.00;4.80;;;;;;;-141.22;100.00;65034.22;5007173;28;20943;-41
2023/10/23 10:30:41;;;;;;;5.63;5.20;;;;;;;-141.22;100.00;65034.22;5003217;28;20434;-41
2023/10/23 10:33:17;;;;;;;6.47;5.97;;;;;;;-141.22;100.00;65034.22;5003565;28;20540;-41
2023/10/23 10:36:06;;;;;;;6.20;5.27;;;;;;;-141.22;100.00;65034.22;5012855;28;20472;-44
2023/10/23 10:38:35;;;;;;;6.30;4.90;;;;;;;-141.22;100.00;65034.22;5002678;28;20470;-42
2023/10/23 10:41:04;;;;;;;4.70;4.40;;;;;;;-141.22;100.00;65034.22;5002694;28;20453;-41
2023/10/23 10:43:33;;;;;;;4.80;4.40;;;;;;;-141.22;100.00;65034.22;4994002;28;20497;-42
2023/10/23 10:46:04;;;;;;;5.60;5.20;;;;;;;-141.22;100.00;65034.22;4994100;28;20430;-41
2023/10/23 10:48:44;;;;;;;5.50;5.20;;;;;;;-141.22;100.00;65034.22;5006566;28;20473;-42
2023/10/23 10:51:15;;;;;;;7.07;4.70;;;;;;;-141.22;100.00;65034.22;5003905;28;20979;-43
2023/10/23 10:53:42;;;;;;;5.10;4.70;;;;;;;-141.22;100.00;65034.22;4993363;28;20458;-42
2023/10/23 10:56:10;;;;;;;4.17;3.87;;;;;;;-141.22;100.00;65034.22;5009632;28;20535;-41
2023/10/23 10:58:38;;;;;;;3.57;3.30;;;;;;;-141.22;100.00;65034.22;4998411;28;20495;-42
2023/10/23 11:01:07;;;;;;;3.93;3.57;;;;;;;-141.22;100.00;65034.22;4996106;28;20508;-41
2023/10/23 11:03:36;;;;;;;4.67;4.20;;;;;;;-141.22;100.00;65034.22;4993040;28;20458;-41
2023/10/23 11:06:07;;;;;;;5.03;4.53;;;;;;;-141.22;100.00;65034.22;5000995;28;20440;-42